e-Mail: Password: Lost your password? Click here. - Register a new user

c h a v e z j u a r e z . c o m

Weather - Tiempo - Wetter - Temps

METAR DATA MMMX (Mexico City)

Mexico City / Licenci, Mexico (MMMX) 19-26N 099-06W
Jul 18, 2019 - 08:45 AM EDT / 2019.07.18 1245 UTC
Wind: from the W (280 degrees) at 7 MPH (6 KT):0
Visibility: 6 mile(s):0
Sky conditions: mostly cloudy
Temperature: 59 F (15 C)
Dew Point: 51 F (11 C)
Relative Humidity: 76%
Pressure (altimeter): 30.38 in. Hg (1028 hPa)
ob: MMMX 181245Z 28006KT 6SM BKN020 15/11 A3038 NOSIG RMK 8/500 HZY AC LWR SC
cycle: 13

Mexico City

St. Prex




Current weather alarms for Switzerland


www.wetteralarm.ch